»·PEaware :: FDX457 KSLC-KLAX

FDX457 :: KSLC-KLAX

FLIGHT INFORMATION

Flight Status: Arrived
Operator:
Federal Express
More flights by this operator :: More flights under this callsign
Pilot: Alan S. (10569)
Aircraft: Unknown
(B77F)
More flights by this aircraft type
Origin: KSLC Salt Lake City Intl
United States
Destination: KLAX Los Angeles Intl
United States
More flights between these airports :: More routes between these airports
Route: +WEVIC5 EHK BLD J107 HEC RIIVR3
File this flight plan on PilotEdge
Remarks: FEDEX twitch.tv / aerosimgaming
Altitude:
(Current/Filed)
34,000ft
Speed:
(Current/Filed)
480kts
Departed: 12-Mar-17 08:58 PM
Arrived: 12-Mar-17 10:20 PM
Distance/Time
Traveled:
513nm/1:22
Distance/Time
To Go:
Arrived

Flight Plot

Page will automatically refresh every two minutes.

Flight plan parsing failed; only flown route is shown


Map Options




Map Legend


Flown Route
Filed Route
Departure Airport
Arrival Airport
Navaid (VOR, NDB)
Fix

Horizontal Profiles

Position Reports

Time Latitude Longitude Heading Altitude Ground
Speed
12-Mar-17 20:18 40.774916 -111.976863 262 4244ft 0kts
12-Mar-17 20:19 40.774916 -111.976863 262 4244ft 0kts
12-Mar-17 20:20 40.774916 -111.976863 262 4244ft 0kts
12-Mar-17 20:21 40.774916 -111.976863 262 4244ft 0kts
12-Mar-17 20:22 40.774916 -111.976863 262 4244ft 0kts
12-Mar-17 20:23 40.774916 -111.976863 262 4244ft 0kts
12-Mar-17 20:24 40.774916 -111.976863 262 4244ft 0kts
12-Mar-17 20:25 40.774916 -111.976863 262 4244ft 0kts
12-Mar-17 20:26 40.774916 -111.976863 262 4244ft 0kts
12-Mar-17 20:27 40.774916 -111.976863 262 4244ft 0kts
12-Mar-17 20:28 40.774916 -111.976863 262 4244ft 0kts
12-Mar-17 20:29 40.774916 -111.976863 262 4244ft 0kts
12-Mar-17 20:30 40.774916 -111.976863 262 4244ft 0kts
12-Mar-17 20:31 40.774916 -111.976863 262 4244ft 0kts
12-Mar-17 20:32 40.774916 -111.976863 262 4244ft 0kts
12-Mar-17 20:33 40.774968 -111.976372 263 4244ft 2kts
12-Mar-17 20:34 40.774647 -111.975690 352 4244ft 2kts
12-Mar-17 20:35 40.774634 -111.975688 352 4244ft 0kts
12-Mar-17 20:36 40.774634 -111.975688 352 4244ft 0kts
12-Mar-17 20:37 40.774634 -111.975688 352 4244ft 0kts
12-Mar-17 20:38 40.774634 -111.975688 352 4244ft 0kts
12-Mar-17 20:39 40.774634 -111.975688 352 4244ft 0kts
12-Mar-17 20:40 40.774634 -111.975688 352 4244ft 0kts
12-Mar-17 20:41 40.774634 -111.975688 352 4244ft 0kts
12-Mar-17 20:42 40.774634 -111.975688 352 4244ft 0kts
12-Mar-17 20:43 40.774634 -111.975688 352 4244ft 0kts
12-Mar-17 20:44 40.774634 -111.975688 352 4244ft 0kts
12-Mar-17 20:45 40.774634 -111.975688 352 4244ft 0kts
12-Mar-17 20:46 40.775272 -111.975705 1 4244ft 14kts
12-Mar-17 20:47 40.783871 -111.976390 355 4244ft 27kts
12-Mar-17 20:48 40.789242 -111.977010 354 4244ft 19kts
12-Mar-17 20:49 40.793835 -111.977548 355 4244ft 11kts
12-Mar-17 20:50 40.797785 -111.977993 354 4244ft 26kts
12-Mar-17 20:51 40.806323 -111.979008 355 4244ft 16kts
12-Mar-17 20:52 40.807207 -111.978838 38 4244ft 0kts
12-Mar-17 20:53 40.807208 -111.978837 38 4244ft 0kts
12-Mar-17 20:54 40.807208 -111.978837 38 4244ft 0kts
12-Mar-17 20:55 40.807208 -111.978837 38 4244ft 0kts
12-Mar-17 20:56 40.807208 -111.978837 38 4244ft 0kts
12-Mar-17 20:57 40.807208 -111.978837 38 4244ft 0kts
12-Mar-17 20:58 40.806261 -111.976791 175 4244ft 27kts
12-Mar-17 20:59 40.776799 -111.973003 174 4981ft 186kts
12-Mar-17 21:00 40.715566 -111.966951 180 8333ft 271kts
12-Mar-17 21:01 40.628728 -111.963070 177 10003ft 368kts
12-Mar-17 21:02 40.526807 -111.956193 178 13324ft 376kts
12-Mar-17 21:03 40.421077 -111.949198 178 16080ft 392kts
12-Mar-17 21:04 40.310849 -111.941606 179 18554ft 412kts
12-Mar-17 21:05 40.200277 -111.971252 201 21616ft 416kts
12-Mar-17 21:06 40.090591 -112.022558 201 23309ft 423kts
12-Mar-17 21:07 39.979689 -112.074555 201 23315ft 425kts
12-Mar-17 21:08 39.867294 -112.127077 201 25933ft 439kts
12-Mar-17 21:09 39.750820 -112.181310 202 28405ft 455kts
12-Mar-17 21:10 39.630634 -112.237119 201 30787ft 469kts
12-Mar-17 21:11 39.508466 -112.293724 198 33826ft 462kts
12-Mar-17 21:12 39.388709 -112.348706 199 34289ft 457kts
12-Mar-17 21:13 39.269451 -112.403432 199 34288ft 457kts
12-Mar-17 21:14 39.150090 -112.458010 199 34287ft 458kts
12-Mar-17 21:15 39.030106 -112.512662 199 34286ft 458kts
12-Mar-17 21:16 38.910665 -112.566882 199 34284ft 459kts
12-Mar-17 21:17 38.794797 -112.619351 199 34282ft 466kts
12-Mar-17 21:18 38.675047 -112.673679 198 34295ft 459kts
12-Mar-17 21:19 38.554718 -112.727966 198 34292ft 460kts
12-Mar-17 21:20 38.434487 -112.781796 198 34291ft 461kts
12-Mar-17 21:21 38.313671 -112.835666 198 34290ft 461kts
12-Mar-17 21:22 38.192992 -112.889297 198 34288ft 462kts
12-Mar-17 21:23 38.072111 -112.942825 198 34287ft 462kts
12-Mar-17 21:24 37.950841 -112.996348 198 34285ft 461kts
12-Mar-17 21:25 37.832318 -113.048470 198 34294ft 462kts
12-Mar-17 21:26 37.723936 -113.133954 216 34296ft 467kts
12-Mar-17 21:27 37.623474 -113.237016 216 34297ft 468kts
12-Mar-17 21:28 37.522726 -113.340305 216 34292ft 469kts
12-Mar-17 21:29 37.421743 -113.443457 216 34290ft 469kts
12-Mar-17 21:30 37.320620 -113.546411 216 34186ft 471kts
12-Mar-17 21:31 37.218539 -113.649908 216 34203ft 477kts
12-Mar-17 21:32 37.119060 -113.751191 216 34181ft 472kts
12-Mar-17 21:33 37.017246 -113.853779 216 34179ft 473kts
12-Mar-17 21:34 36.914906 -113.956488 216 34178ft 474kts
12-Mar-17 21:35 36.815758 -114.055642 216 34186ft 474kts
12-Mar-17 21:36 36.713200 -114.157855 216 34185ft 474kts
12-Mar-17 21:37 36.610467 -114.259882 216 34184ft 475kts
12-Mar-17 21:38 36.507215 -114.362062 216 34183ft 475kts
12-Mar-17 21:39 36.403413 -114.464501 215 34099ft 476kts
12-Mar-17 21:40 36.300226 -114.565841 216 34102ft 477kts
12-Mar-17 21:41 36.197615 -114.666378 215 34100ft 477kts
12-Mar-17 21:42 36.094793 -114.767375 215 34126ft 478kts
12-Mar-17 21:43 35.991824 -114.869892 222 34096ft 480kts
12-Mar-17 21:44 35.901684 -114.991997 224 34124ft 482kts
12-Mar-17 21:45 35.813381 -115.111834 224 34158ft 482kts
12-Mar-17 21:46 35.723577 -115.233129 224 34145ft 489kts
12-Mar-17 21:47 35.633337 -115.354932 224 34158ft 483kts
12-Mar-17 21:48 35.542733 -115.476602 224 34157ft 483kts
12-Mar-17 21:49 35.452127 -115.597844 224 34157ft 484kts
12-Mar-17 21:50 35.364871 -115.714804 224 34155ft 484kts
12-Mar-17 21:51 35.274283 -115.835370 224 34154ft 484kts
12-Mar-17 21:52 35.184688 -115.953952 224 32439ft 460kts
12-Mar-17 21:53 35.100295 -116.065258 226 30646ft 441kts
12-Mar-17 21:54 35.016575 -116.175450 226 28882ft 445kts
12-Mar-17 21:55 34.933676 -116.284174 226 27086ft 432kts
12-Mar-17 21:56 34.858079 -116.383028 226 25468ft 422kts
12-Mar-17 21:57 34.776364 -116.481209 218 24154ft 410kts
12-Mar-17 21:58 34.686630 -116.566822 217 24111ft 400kts
12-Mar-17 21:59 34.603634 -116.645004 217 23547ft 374kts
12-Mar-17 22:00 34.524905 -116.719382 217 22680ft 368kts
12-Mar-17 22:01 34.444319 -116.794886 217 21844ft 367kts
12-Mar-17 22:02 34.364524 -116.869425 217 20846ft 364kts
12-Mar-17 22:03 34.285669 -116.942905 217 19894ft 356kts
12-Mar-17 22:04 34.208011 -117.015098 217 19090ft 350kts
12-Mar-17 22:05 34.131170 -117.086363 217 18349ft 346kts
12-Mar-17 22:06 34.076512 -117.179540 240 18252ft 348kts
12-Mar-17 22:07 34.044398 -117.290412 260 15876ft 348kts
12-Mar-17 22:08 34.033113 -117.404843 262 14111ft 343kts
12-Mar-17 22:09 34.022462 -117.517522 262 12596ft 339kts
12-Mar-17 22:10 34.011960 -117.627346 262 11104ft 320kts
12-Mar-17 22:11 34.002785 -117.724662 263 9801ft 302kts
12-Mar-17 22:12 33.993324 -117.822112 264 8479ft 291kts
12-Mar-17 22:13 33.983980 -117.917838 264 7244ft 288kts
12-Mar-17 22:14 33.974959 -118.009377 263 6032ft 277kts
12-Mar-17 22:15 33.966639 -118.092435 264 4827ft 224kts
12-Mar-17 22:16 33.959589 -118.162933 264 3813ft 204kts
12-Mar-17 22:17 33.953199 -118.226824 263 2747ft 172kts
12-Mar-17 22:18 33.947681 -118.281688 262 1834ft 165kts
12-Mar-17 22:19 33.941851 -118.337363 262 926ft 164kts
12-Mar-17 22:20 33.936700 -118.389682 262 150ft 155kts
12-Mar-17 22:21 33.934246 -118.412103 229 142ft 11kts
12-Mar-17 22:22 33.933368 -118.409726 83 142ft 10kts
12-Mar-17 22:23 33.933731 -118.406169 84 142ft 10kts

Navigation Log

Ident Type
Flight plan parsing failed, navigation log unavailable